createdAt,value
2023-02-23T00:01:16.192Z,9.40
2023-02-23T00:05:19.867Z,8.82
2023-02-23T00:09:26.203Z,9.40
2023-02-23T00:13:29.928Z,11.65
2023-02-23T00:17:36.711Z,9.70
2023-02-23T00:21:40.213Z,8.30
2023-02-23T00:25:46.327Z,9.15
2023-02-23T00:29:51.003Z,9.65
2023-02-23T00:33:57.022Z,9.60
2023-02-23T00:38:00.234Z,9.00
2023-02-23T00:42:03.784Z,9.57
2023-02-23T00:46:07.609Z,8.32
2023-02-23T00:50:14.955Z,9.95
2023-02-23T00:54:18.414Z,11.10
2023-02-23T00:58:21.452Z,8.32
2023-02-23T01:02:25.163Z,7.78
2023-02-23T01:06:29.698Z,8.68
2023-02-23T01:10:34.139Z,7.65
2023-02-23T01:14:38.184Z,7.45
2023-02-23T01:18:42.795Z,9.30
2023-02-23T01:22:49.161Z,8.85
2023-02-23T01:26:52.347Z,9.43
2023-02-23T01:30:56.487Z,8.38
2023-02-23T01:34:59.592Z,9.52
2023-02-23T01:39:07.620Z,8.30
2023-02-23T01:43:15.815Z,7.00
2023-02-23T01:47:20.569Z,9.85
2023-02-23T01:51:26.813Z,11.25
2023-02-23T01:55:31.624Z,11.20
2023-02-23T01:59:41.146Z,9.15
2023-02-23T02:03:48.333Z,9.02
2023-02-23T02:07:59.087Z,10.13
2023-02-23T02:12:08.425Z,8.98
2023-02-23T02:16:49.907Z,8.43
2023-02-23T02:21:40.596Z,11.05
2023-02-23T02:25:55.394Z,7.32
2023-02-23T02:30:35.403Z,10.38
2023-02-23T02:35:09.501Z,7.15
2023-02-23T02:39:24.125Z,9.48
2023-02-23T02:43:38.521Z,6.72
2023-02-23T02:47:50.419Z,9.18
2023-02-23T02:52:00.027Z,7.97
2023-02-23T02:56:06.469Z,8.07
2023-02-23T03:00:37.187Z,6.25
2023-02-23T03:04:58.024Z,9.23
2023-02-23T03:09:26.659Z,7.03
2023-02-23T03:14:01.978Z,8.20
2023-02-23T03:18:35.760Z,8.65
2023-02-23T03:23:05.200Z,8.48
2023-02-23T03:27:38.069Z,6.75
2023-02-23T03:32:07.182Z,9.55
2023-02-23T03:36:36.266Z,6.13
2023-02-23T03:41:02.315Z,6.82
2023-02-23T03:45:26.997Z,9.52
2023-02-23T03:49:53.271Z,8.52
2023-02-23T03:54:20.595Z,8.60
2023-02-23T03:58:47.322Z,8.00
2023-02-23T04:03:10.193Z,8.02
2023-02-23T04:07:35.406Z,7.68
2023-02-23T04:12:01.533Z,5.93
2023-02-23T04:16:06.592Z,9.15
2023-02-23T04:20:12.327Z,8.95
2023-02-23T04:24:16.667Z,9.52
2023-02-23T04:28:20.033Z,9.10
2023-02-23T04:32:23.153Z,11.63
2023-02-23T04:36:26.926Z,7.97
2023-02-23T04:40:31.772Z,7.45
2023-02-23T04:44:35.054Z,9.80
2023-02-23T04:48:38.049Z,10.15
2023-02-23T04:52:41.158Z,7.85
2023-02-23T04:56:45.510Z,8.35
2023-02-23T05:00:48.633Z,8.55
2023-02-23T05:04:51.730Z,7.18
2023-02-23T05:08:54.879Z,9.65
2023-02-23T05:13:01.141Z,8.27
2023-02-23T05:17:04.495Z,7.07
2023-02-23T05:21:09.624Z,7.68
2023-02-23T05:25:13.064Z,8.57
2023-02-23T05:29:17.673Z,9.85
2023-02-23T05:33:21.944Z,11.38
2023-02-23T05:37:24.919Z,9.63
2023-02-23T05:41:27.965Z,10.70
2023-02-23T05:45:33.271Z,9.98
2023-02-23T05:49:36.332Z,7.95
2023-02-23T05:53:39.924Z,8.05
2023-02-23T05:57:43.942Z,8.25
2023-02-23T06:01:48.301Z,8.73
2023-02-23T06:05:52.307Z,9.60
2023-02-23T06:09:55.431Z,11.35
2023-02-23T06:14:00.515Z,9.75
2023-02-23T06:18:05.317Z,9.82
2023-02-23T06:22:08.438Z,10.80
2023-02-23T06:26:11.417Z,11.05
2023-02-23T06:30:15.345Z,11.15
2023-02-23T06:34:19.972Z,13.40
2023-02-23T06:38:24.003Z,12.70
2023-02-23T06:42:27.193Z,14.02
2023-02-23T06:46:30.479Z,12.73
2023-02-23T06:50:34.888Z,14.75
2023-02-23T06:54:40.097Z,13.13
2023-02-23T06:58:43.466Z,12.27
2023-02-23T07:02:46.592Z,11.45
2023-02-23T07:06:50.977Z,13.88
2023-02-23T07:10:54.145Z,16.20
2023-02-23T07:14:57.113Z,14.40
2023-02-23T07:19:00.412Z,13.48
2023-02-23T07:23:04.810Z,15.35
2023-02-23T07:27:08.094Z,12.90
2023-02-23T07:31:11.160Z,14.18
2023-02-23T07:35:14.216Z,15.30
2023-02-23T07:39:18.572Z,15.57
2023-02-23T07:43:22.841Z,14.10
2023-02-23T07:47:32.538Z,16.95
2023-02-23T07:51:35.671Z,16.23
2023-02-23T07:55:40.282Z,18.33
2023-02-23T07:59:43.617Z,15.57
2023-02-23T08:03:49.638Z,16.50
2023-02-23T08:07:52.771Z,16.25
2023-02-23T08:11:57.102Z,18.02
2023-02-23T08:16:00.328Z,16.52
2023-02-23T08:20:03.895Z,17.70
2023-02-23T08:24:07.971Z,13.77
2023-02-23T08:28:13.161Z,14.32
2023-02-23T08:32:16.247Z,13.63
2023-02-23T08:36:20.756Z,14.07
2023-02-23T08:40:23.853Z,12.73
2023-02-23T08:44:28.571Z,14.63
2023-02-23T08:48:31.811Z,13.60
2023-02-23T08:52:35.141Z,12.75
2023-02-23T08:56:38.382Z,13.73
2023-02-23T09:00:42.729Z,13.13
2023-02-23T09:04:45.943Z,14.63
2023-02-23T09:08:49.677Z,12.45
2023-02-23T09:12:53.014Z,13.35
2023-02-23T09:16:57.359Z,14.75
2023-02-23T09:21:00.683Z,12.02
2023-02-23T09:25:03.720Z,15.13
2023-02-23T09:29:08.408Z,15.23
2023-02-23T09:33:12.988Z,13.00
2023-02-23T09:37:16.670Z,16.85
2023-02-23T09:41:54.623Z,12.38
2023-02-23T09:46:05.282Z,12.40
2023-02-23T09:50:17.806Z,12.52
2023-02-23T09:54:24.241Z,13.02
2023-02-23T09:58:29.797Z,19.02
2023-02-23T10:02:39.840Z,13.77
2023-02-23T10:06:49.840Z,14.98
2023-02-23T10:11:00.947Z,15.25
2023-02-23T10:15:16.656Z,12.75
2023-02-23T10:19:27.329Z,13.50
2023-02-23T10:23:38.788Z,12.13
2023-02-23T10:27:45.202Z,13.05
2023-02-23T10:31:52.315Z,14.48
2023-02-23T10:36:13.026Z,13.63
2023-02-23T10:40:21.509Z,13.48
2023-02-23T10:44:27.513Z,14.05
2023-02-23T10:48:35.109Z,13.18
2023-02-23T10:52:43.104Z,14.80
2023-02-23T10:56:48.246Z,14.27
2023-02-23T11:00:56.901Z,19.70
2023-02-23T11:05:02.289Z,13.05
2023-02-23T11:09:33.105Z,13.05
2023-02-23T11:13:48.904Z,13.93
2023-02-23T11:17:57.500Z,15.07
2023-02-23T11:22:00.959Z,13.95
2023-02-23T11:26:17.208Z,14.13
2023-02-23T11:30:25.351Z,16.63
2023-02-23T11:34:35.363Z,16.27
2023-02-23T11:38:38.455Z,14.73
2023-02-23T11:42:53.545Z,15.50
2023-02-23T11:46:58.852Z,16.08
2023-02-23T11:51:02.716Z,15.95
2023-02-23T11:55:09.092Z,16.10
2023-02-23T11:59:20.505Z,13.45
2023-02-23T12:03:27.048Z,14.80
2023-02-23T12:07:41.642Z,15.18
2023-02-23T12:11:50.258Z,13.70
2023-02-23T12:15:58.926Z,18.13
2023-02-23T12:20:11.061Z,14.13
2023-02-23T12:24:21.064Z,14.40
2023-02-23T12:28:30.146Z,14.80
2023-02-23T12:32:45.298Z,25.65
2023-02-23T12:36:56.872Z,13.95
2023-02-23T12:41:06.242Z,14.07
2023-02-23T12:45:18.989Z,14.20
2023-02-23T12:49:31.208Z,13.82
2023-02-23T12:53:41.868Z,15.48
2023-02-23T12:57:54.763Z,13.55
2023-02-23T13:02:00.836Z,13.60
2023-02-23T13:06:11.923Z,13.18
2023-02-23T13:10:25.947Z,12.20
2023-02-23T13:14:35.121Z,12.55
2023-02-23T13:18:44.430Z,12.45
2023-02-23T13:22:52.258Z,11.95
2023-02-23T13:27:02.294Z,10.98
2023-02-23T13:31:06.337Z,13.10
2023-02-23T13:35:15.758Z,11.70
2023-02-23T13:39:50.093Z,13.20
2023-02-23T13:44:00.383Z,12.90
2023-02-23T13:48:14.943Z,16.35
2023-02-23T13:52:24.886Z,11.93
2023-02-23T13:56:30.863Z,11.80
2023-02-23T14:00:35.337Z,13.60
2023-02-23T14:04:42.483Z,12.00
2023-02-23T14:08:52.850Z,13.48
2023-02-23T14:13:09.283Z,12.07
2023-02-23T14:17:50.558Z,13.82
2023-02-23T14:22:00.846Z,11.73
2023-02-23T14:26:16.495Z,13.75
2023-02-23T14:30:27.188Z,12.60
2023-02-23T14:34:49.473Z,9.70
2023-02-23T14:39:01.712Z,9.32
2023-02-23T14:43:05.126Z,11.25
2023-02-23T14:47:12.873Z,10.75
2023-02-23T14:51:23.513Z,9.82
2023-02-23T14:55:29.595Z,9.20
2023-02-23T14:59:39.654Z,10.38
2023-02-23T15:03:42.809Z,13.55
2023-02-23T15:07:46.807Z,9.90
2023-02-23T15:11:54.185Z,9.80
2023-02-23T15:15:58.768Z,10.35
2023-02-23T15:20:15.805Z,9.93
2023-02-23T15:24:25.829Z,11.05
2023-02-23T15:28:31.334Z,11.60
2023-02-23T15:32:39.550Z,11.75
2023-02-23T15:36:47.143Z,10.65
2023-02-23T15:40:53.626Z,11.90
2023-02-23T15:45:03.157Z,9.40
2023-02-23T15:49:07.441Z,11.38
2023-02-23T15:53:31.808Z,9.15
2023-02-23T15:57:44.176Z,10.00
2023-02-23T16:01:48.852Z,12.07
2023-02-23T16:05:59.849Z,12.10
2023-02-23T16:10:07.146Z,11.02
2023-02-23T16:14:17.810Z,11.77
2023-02-23T16:18:30.137Z,13.50
2023-02-23T16:22:33.456Z,12.40
2023-02-23T16:26:42.470Z,13.88
2023-02-23T16:30:53.653Z,12.20
2023-02-23T16:35:02.470Z,13.90
2023-02-23T16:39:11.987Z,12.23
2023-02-23T16:43:15.089Z,14.30
2023-02-23T16:47:36.419Z,15.25
2023-02-23T16:51:41.617Z,10.68
2023-02-23T16:55:50.207Z,10.93
2023-02-23T16:59:54.807Z,13.32
2023-02-23T17:03:59.115Z,12.43
2023-02-23T17:08:05.003Z,14.77
2023-02-23T17:12:08.394Z,13.40
2023-02-23T17:16:14.266Z,11.38
2023-02-23T17:20:21.727Z,13.68
2023-02-23T17:24:26.295Z,12.73
2023-02-23T17:28:29.317Z,15.15
2023-02-23T17:32:33.110Z,15.38
2023-02-23T17:36:36.133Z,11.32
2023-02-23T17:40:40.846Z,14.65
2023-02-23T17:44:44.561Z,12.88
2023-02-23T17:48:47.883Z,13.63
2023-02-23T17:52:51.944Z,15.00
2023-02-23T17:56:56.858Z,13.55
2023-02-23T18:01:01.899Z,15.38
2023-02-23T18:05:05.682Z,15.43
2023-02-23T18:09:08.954Z,13.60
2023-02-23T18:13:15.337Z,15.63
2023-02-23T18:17:18.391Z,14.02
2023-02-23T18:21:23.203Z,15.60
2023-02-23T18:25:29.077Z,15.93
2023-02-23T18:29:35.852Z,13.77
2023-02-23T18:33:38.864Z,15.90
2023-02-23T18:37:42.050Z,15.82
2023-02-23T18:41:45.568Z,13.70
2023-02-23T18:45:51.103Z,17.17
2023-02-23T18:49:54.097Z,16.30
2023-02-23T18:53:57.221Z,15.40
2023-02-23T18:58:00.368Z,16.58
2023-02-23T19:02:05.274Z,15.75
2023-02-23T19:06:11.604Z,14.93
2023-02-23T19:10:16.581Z,14.80
2023-02-23T19:14:22.098Z,16.88
2023-02-23T19:18:28.395Z,17.02
2023-02-23T19:22:31.387Z,14.57
2023-02-23T19:26:37.341Z,17.38
2023-02-23T19:30:45.025Z,16.88
2023-02-23T19:34:49.688Z,14.32
2023-02-23T19:38:52.692Z,15.18
2023-02-23T19:42:56.151Z,14.80
2023-02-23T19:46:59.161Z,13.38
2023-02-23T19:51:04.264Z,14.52
2023-02-23T19:55:08.430Z,15.13
2023-02-23T19:59:12.201Z,13.68
2023-02-23T20:03:19.855Z,15.15
2023-02-23T20:07:25.483Z,18.50
2023-02-23T20:11:28.620Z,14.13
2023-02-23T20:15:31.778Z,17.45
2023-02-23T20:19:34.767Z,14.43
2023-02-23T20:23:39.413Z,15.75
2023-02-23T20:27:44.125Z,14.43
2023-02-23T20:31:50.736Z,17.83
2023-02-23T20:35:53.974Z,13.90
2023-02-23T20:39:58.463Z,15.57
2023-02-23T20:44:01.868Z,14.57
2023-02-23T20:48:05.056Z,14.90
2023-02-23T20:52:08.094Z,14.52
2023-02-23T20:56:12.679Z,16.50
2023-02-23T21:00:28.779Z,13.85
2023-02-23T21:04:35.385Z,17.27
2023-02-23T21:08:39.942Z,15.57
2023-02-23T21:12:44.445Z,15.75
2023-02-23T21:16:47.450Z,18.30
2023-02-23T21:20:50.551Z,17.27
2023-02-23T21:24:53.587Z,13.52
2023-02-23T21:28:58.361Z,15.23
2023-02-23T21:33:03.831Z,17.38
2023-02-23T21:37:07.345Z,18.30
2023-02-23T21:41:11.703Z,17.17
2023-02-23T21:45:17.308Z,16.80
2023-02-23T21:49:20.833Z,15.88
2023-02-23T21:53:23.910Z,15.25
2023-02-23T21:57:28.286Z,18.42
2023-02-23T22:01:34.731Z,17.30
2023-02-23T22:05:37.757Z,14.95
2023-02-23T22:09:41.389Z,15.75
2023-02-23T22:13:44.701Z,17.77
2023-02-23T22:17:49.133Z,15.90
2023-02-23T22:21:52.420Z,14.27
2023-02-23T22:25:55.869Z,15.63
2023-02-23T22:30:01.538Z,15.88
2023-02-23T22:34:07.360Z,17.58
2023-02-23T22:38:10.382Z,17.38
2023-02-23T22:42:13.447Z,20.02
2023-02-23T22:46:17.700Z,18.05
2023-02-23T22:50:22.442Z,18.17
2023-02-23T22:54:26.547Z,17.27
2023-02-23T22:58:31.617Z,15.65
2023-02-23T23:02:36.264Z,16.58
2023-02-23T23:06:42.790Z,19.48
2023-02-23T23:10:49.358Z,16.88
2023-02-23T23:14:52.531Z,19.23
2023-02-23T23:18:57.590Z,16.75
2023-02-23T23:23:02.668Z,17.05
2023-02-23T23:27:08.243Z,19.92
2023-02-23T23:31:11.498Z,16.63
2023-02-23T23:35:15.343Z,16.83
2023-02-23T23:39:21.815Z,16.15
2023-02-23T23:43:25.358Z,15.23
2023-02-23T23:47:30.450Z,16.13
2023-02-23T23:51:38.803Z,15.85
2023-02-23T23:55:43.280Z,17.60
2023-02-23T23:59:48.675Z,16.42
